الصفحة الرئيسية
METAR-TAF:

METAR-TAF

مطار :

Subic Bay, الفلبين

دائرة عرض: 14-48N, خط طول: 120-16E, ارتفاع: 18 متر

مراقبة الطقس الحالي

تاريخ ووقت الإصدار 45 دقيقة قبل الساعة 00:00UTC
ريح 7 عقدة من الشرق/الشمال الشرقي, الاتجاه يتراوح بين الشمال/الشمال الشرقي و الشرق
درجة الحرارة 29°درجة مئوية
الرطوبة 62%
ضغط 1013 hPa
الرؤية 10 كم أو أكثر
غيوم قليلة على ارتفاع 2000 قدم

METAR: RPLB 290000Z 06007KT 030V080 9999 FEW020 29/21 Q1013 NOSIG RMK A2991

زمن: 08:45 (00:45 UTC)

توقعات

تاريخ ووقت الإصدار 1ساعة و 45 دقيقة قبل الساعة 23:00UTC
التوقعات صالحة من29 الساعة 00 UTC إلى 29 الساعة 24 UTC
ريح 8 عقدة من الشرق/الشمال الشرقي
الرؤية 10 كم أو أكثر
غيوم قليلة على ارتفاع 2000 قدم
مؤقت
من 29 الساعة 00 UTC إلى 29 الساعة 06 UTC
ريح 11 عقدة من الشرق
غيوم متفرقة على ارتفاع 2000 قدم
غيوم مفككة على ارتفاع 8000 قدم

TAF: RPLB 282300Z 2900/2924 07008KT 9999 FEW020 TX35/2906Z TN24/2921Z TEMPO 2900/2906 09011KT SCT020 BKN080

أرصاد الطقس والتوقعات من أكثر من 4000 مطار (تقارير الطقس للمطار METAR والتنبؤ بالطقس بالمطارTAF).

المحطات المتاحة هي النقط الصفراء والحمراء على الخريطة.

حرك المؤشر فوق النقطة لمعرفة اسم المحطة.

ثم انقر لمعرفة أرصاد وتوقعات الطقس.

لتغيير الخارطة: اضغط على الأزرار الخضراء مع رمز الصليب الأسود للتكبير. على الزر الأخضر مع شرطة للتصغير، أو على الأسهم الخضراء للخرائط المجاورة.


METAR-TAF: